Latest Weather Observations for Moranbah Airport

IDQ60801

Issued at 12:22 am EST Wednesday 29 January 2020 (issued every 10 minutes, with the page automatically refreshed every 10 minutes)

About weather observations | Map of weather stations | Latest weather observations for QLD | Other Formats
Station Details ID: 034035 Name: MORANBAH AIRPORT Lat: -22.06 Lon: 148.08 Height: 232.2 m
Data from the previous 72 hours. | See also: Recent months at Moranbah Airport
Date/Time
EST
Temp
°C
App
Temp
°C
Dew
Point
°C
Rel
Hum
%
Delta-T
°C
Wind Press
QNH
hPa
Press
MSL
hPa
Rain since
9am
mm
Dir  Spd
km/h
Gust
km/h
Spd
kts
Gust
kts
29/12:00am 24.1 27.4 23.2 95 0.6 ESE 11 15 6 8 1012.9 1011.2 2.2
 
Date/Time
EST
Temp
°C
App
Temp
°C
Dew
Point
°C
Rel
Hum
%
Delta-T
°C
Wind Press
QNH
hPa
Press
MSL
hPa
Rain since
9am
mm
Dir  Spd
km/h
Gust
km/h
Spd
kts
Gust
kts
28/11:44pm 24.0 27.2 23.1 95 0.6 E 11 15 6 8 1013.0 1011.4 2.2
28/11:30pm 23.9 26.7 23.0 95 0.6 ESE 13 15 7 8 1013.0 1011.4 2.2
28/11:12pm 23.9 26.7 23.0 95 0.6 ESE 13 17 7 9 1013.1 1011.5 2.2
28/11:00pm 23.9 26.7 23.0 95 0.6 ESE 13 19 7 10 1013.2 1011.6 2.2
28/10:58pm 23.8 26.6 23.0 95 0.5 ESE 13 19 7 10 1013.2 1011.6 2.2
28/10:38pm 23.9 26.3 23.0 95 0.6 ESE 15 20 8 11 1013.2 1011.6 2.2
28/10:30pm 23.8 26.6 23.0 95 0.5 ESE 13 17 7 9 1013.2 1011.6 2.2
28/10:20pm 23.8 26.2 23.0 95 0.5 ESE 15 19 8 10 1013.1 1011.5 2.2
28/10:00pm 23.9 26.3 22.9 94 0.7 ESE 15 19 8 10 1012.9 1011.2 2.2
28/09:30pm 24.0 26.3 22.8 93 0.8 ESE 15 20 8 11 1012.7 1011.0 2.2
28/09:29pm 24.0 26.3 22.8 93 0.8 ESE 15 20 8 11 1012.7 1011.0 2.2
28/09:00pm 23.9 25.8 22.7 93 0.8 ESE 17 24 9 13 1012.6 1010.9 2.2
28/08:51pm 24.0 25.4 22.6 92 0.9 ESE 19 24 10 13 1012.5 1010.8 2.2
28/08:41pm 24.3 25.6 22.7 91 1.1 ESE 20 28 11 15 1012.5 1010.8 2.0
28/08:30pm 24.2 25.5 22.6 91 1.1 ESE 20 26 11 14 1012.4 1010.7 2.0
28/08:00pm 24.3 25.7 22.9 92 1.0 ESE 20 28 11 15 1012.0 1010.4 2.0
28/07:30pm 24.3 25.7 22.9 92 1.0 ESE 20 28 11 15 1011.5 1009.9 2.0
28/07:00pm 24.3 25.6 22.7 91 1.1 ESE 20 30 11 16 1011.2 1009.6 2.0
28/06:59pm 24.3 25.6 22.7 91 1.1 ESE 20 30 11 16 1011.2 1009.6 2.0
28/06:33pm 24.6 25.3 23.0 91 1.1 ESE 24 30 13 16 1010.6 1009.0 2.0
28/06:30pm 24.6 25.2 22.8 90 1.2 ESE 24 32 13 17 1010.6 1009.0 2.0
28/06:00pm 24.8 25.1 23.0 90 1.2 SE 26 35 14 19 1010.2 1008.6 2.0
28/05:56pm 24.8 24.7 22.9 89 1.3 SE 28 35 15 19 1010.2 1008.6 2.0
28/05:30pm 25.2 25.0 22.7 86 1.7 SE 28 35 15 19 1009.9 1008.3 2.0
28/05:00pm 26.5 25.7 22.3 78 2.9 ESE 30 41 16 22 1009.4 1007.8 2.0
28/04:30pm 27.7 27.5 21.3 68 4.3 E 24 35 13 19 1008.9 1007.2 2.0
28/04:00pm 28.1 28.3 22.1 70 4.1 ESE 24 32 13 17 1008.8 1007.1 2.0
28/03:30pm 27.5 29.3 23.5 79 2.8 E 20 26 11 14 1009.0 1007.3 2.0
28/03:00pm 25.6 28.1 23.1 86 1.7 ENE 15 19 8 10 1009.2 1007.6 2.0
28/02:44pm 25.0 25.9 22.7 87 1.6 ENE 22 30 12 16 1009.5 1007.9 2.0
28/02:30pm 25.2 24.8 23.1 88 1.4 E 30 39 16 21 1009.6 1008.0 1.6
28/02:29pm 25.1 24.7 23.0 88 1.4 E 30 39 16 21 1009.6 1008.0 1.6
28/02:00pm 27.9 29.0 23.7 78 2.9 ESE 24 33 13 18 1009.7 1008.1 0.0
28/01:56pm 27.4 28.3 23.4 79 2.8 ESE 24 33 13 18 1009.9 1008.3 0.0
28/01:30pm 26.6 27.1 23.3 82 2.3 ESE 26 35 14 19 1010.3 1008.7 0.0
28/01:00pm 27.2 28.3 23.7 81 2.4 E 24 33 13 18 1010.6 1009.0 0.0
28/12:48pm 26.5 28.2 23.4 83 2.1 ESE 20 28 11 15 1010.7 1009.1 0.0
28/12:30pm 25.7 27.1 22.8 84 2.0 E 20 28 11 15 1011.0 1009.4 0.0
28/12:00pm 25.6 25.8 22.7 84 2.0 E 26 32 14 17 1011.3 1009.7 0.0
28/11:30am 27.4 28.4 22.1 73 3.6 E 20 28 11 15 1011.2 1009.6 0.0
28/11:00am 27.8 29.4 23.2 76 3.2 ESE 20 30 11 16 1011.4 1009.8 0.0
28/10:30am 27.1 28.1 22.9 78 2.9 ESE 22 30 12 16 1011.8 1010.2 0.0
28/10:00am 26.1 26.8 22.2 79 2.6 ESE 22 30 12 16 1011.7 1010.1 0.0
28/09:30am 25.7 26.1 22.4 82 2.2 ESE 24 30 13 16 1011.6 1010.0 0.0
28/09:29am 25.8 26.6 22.5 82 2.2 ESE 22 30 12 16 1011.6 1010.0 0.0
28/09:00am 25.1 26.1 22.2 84 2.0 ESE 20 28 11 15 1011.5 1009.9 15.0
28/08:30am 24.7 25.6 22.6 88 1.4 ESE 22 28 12 15 1011.2 1009.6 15.0
28/08:00am 24.0 25.6 22.8 93 0.8 ESE 19 28 10 15 1010.9 1009.3 15.0
28/07:30am 23.1 25.1 22.3 95 0.5 ESE 15 17 8 9 1010.9 1009.3 15.0
28/07:22am 23.1 25.2 22.4 96 0.5 ESE 15 20 8 11 1011.0 1009.4 15.0
28/07:14am 23.1 25.6 22.4 96 0.5 ESE 13 19 7 10 1011.0 1009.4 15.0
28/07:00am 22.9 24.5 22.2 96 0.5 ESE 17 20 9 11 1010.9 1009.3 15.0
28/06:30am 22.6 24.2 22.1 97 0.3 ESE 17 20 9 11 1010.5 1008.9 15.0
28/06:11am 22.5 24.4 22.0 97 0.3 ESE 15 19 8 10 1010.3 1008.7 15.0
28/06:00am 22.4 24.6 21.9 97 0.3 ESE 13 15 7 8 1010.1 1008.5 15.0
28/05:45am 22.3 24.5 21.8 97 0.3 ESE 13 17 7 9 1009.9 1008.3 15.0
28/05:30am 22.3 24.1 21.8 97 0.3 SE 15 20 8 11 1009.6 1008.0 15.0
28/05:00am 22.4 23.8 21.9 97 0.3 SE 17 20 9 11 1009.6 1008.0 15.0
28/04:30am 22.4 24.0 22.1 98 0.2 SE 17 22 9 12 1009.6 1008.0 15.0
28/04:00am 22.2 24.4 21.9 98 0.2 ESE 13 17 7 9 1009.6 1008.0 15.0
28/03:55am 22.2 24.4 21.9 98 0.2 ESE 13 17 7 9 1009.6 1008.0 15.0
28/03:30am 22.2 24.4 21.9 98 0.2 ESE 13 17 7 9 1009.8 1008.2 15.0
28/03:11am 22.2 24.3 21.7 97 0.3 ESE 13 17 7 9 1009.9 1008.3 15.0
28/03:04am 22.3 24.1 21.8 97 0.3 ESE 15 20 8 11 1009.9 1008.3 15.0
28/03:00am 22.3 24.1 21.8 97 0.3 ESE 15 20 8 11 1010.0 1008.4 15.0
28/02:42am 22.2 23.5 21.7 97 0.3 ESE 17 26 9 14 1010.2 1008.6 15.0
28/02:30am 22.1 24.1 21.6 97 0.3 SE 13 17 7 9 1010.4 1008.8 15.0
28/02:00am 22.2 23.9 21.7 97 0.3 SE 15 19 8 10 1010.7 1009.1 14.8
28/01:30am 22.2 23.1 21.5 96 0.5 ESE 19 22 10 12 1010.9 1009.3 14.4
28/01:00am 22.2 22.8 21.4 95 0.5 ESE 20 26 11 14 1011.2 1009.6 14.2
28/12:30am 22.4 23.1 21.2 93 0.8 ESE 19 24 10 13 1011.5 1009.9 13.4
28/12:00am 22.7 22.7 21.0 90 1.1 E 22 32 12 17 1011.9 1010.3 13.2
 
Date/Time
EST
Temp
°C
App
Temp
°C
Dew
Point
°C
Rel
Hum
%
Delta-T
°C
Wind Press
QNH
hPa
Press
MSL
hPa
Rain since
9am
mm
Dir  Spd
km/h
Gust
km/h
Spd
kts
Gust
kts
27/11:30pm 23.2 23.9 21.5 90 1.1 E 20 30 11 16 1012.3 1010.6 13.0
27/11:00pm 23.2 24.6 21.8 92 0.9 ESE 17 22 9 12 1012.5 1010.8 12.6
27/10:30pm 23.2 25.1 22.0 93 0.8 ESE 15 19 8 10 1012.5 1010.8 12.4
27/10:00pm 23.2 24.3 22.0 93 0.8 ESE 19 24 10 13 1012.4 1010.7 12.4
27/09:30pm 23.4 24.6 22.2 93 0.8 ESE 19 22 10 12 1012.3 1010.6 12.4
27/09:23pm 23.4 24.6 22.2 93 0.8 ESE 19 24 10 13 1012.3 1010.6 12.4
27/09:00pm 23.8 26.2 23.0 95 0.5 ESE 15 20 8 11 1011.9 1010.3 12.4
27/08:58pm 23.7 26.4 22.9 95 0.5 ESE 13 20 7 11 1012.0 1010.4 12.4
27/08:30pm 23.8 26.0 22.6 93 0.8 E 15 20 8 11 1011.8 1010.2 11.8
27/08:06pm 23.7 24.9 22.5 93 0.8 ENE 20 26 11 14 1011.6 1010.0 11.6
27/08:00pm 23.8 25.4 22.8 94 0.7 ENE 19 28 10 15 1011.6 1010.0 11.6
27/07:53pm 23.9 25.9 23.0 95 0.6 ENE 17 26 9 14 1011.5 1009.9 11.6
27/07:48pm 24.2 26.6 23.7 97 0.3 E 17 22 9 12 1011.5 1009.9 11.4
27/07:38pm 23.9 27.4 23.6 98 0.2 ESE 11 24 6 13 1011.3 1009.7 11.4
27/07:30pm 23.9 27.4 23.6 98 0.2 SE 11 17 6 9 1011.3 1009.7 11.2
27/07:09pm 23.8 26.0 23.3 97 0.3 SE 17 20 9 11 1010.9 1009.3 11.0
27/07:00pm 23.6 25.6 22.9 96 0.5 SE 17 20 9 11 1010.9 1009.3 10.8
27/06:49pm 23.7 26.7 22.7 94 0.7 E 11 20 6 11 1010.9 1009.3 9.4
27/06:40pm 23.5 26.2 22.1 92 0.9 ENE 11 15 6 8 1010.8 1009.2 7.4
27/06:30pm 23.6 26.2 21.9 90 1.1 E 11 17 6 9 1010.7 1009.1 7.0
27/06:07pm 24.5 29.9 23.3 93 0.8 CALM 0 0 0 0 1010.2 1008.6 6.2
27/06:00pm 24.3 29.6 23.1 93 0.8 CALM 0 0 0 0 1010.1 1008.5 6.0
27/05:30pm 24.2 29.4 22.8 92 1.0 CALM 0 0 0 0 1009.9 1008.3 5.4
27/05:00pm 24.2 29.4 22.8 92 1.0 CALM 0 0 0 0 1009.6 1008.0 4.4
27/04:30pm 24.1 27.4 22.5 91 1.1 NE 9 11 5 6 1009.5 1007.9 3.6
27/04:00pm 24.3 27.7 22.7 91 1.1 ENE 9 13 5 7 1009.5 1007.9 2.4
27/03:30pm 24.1 27.0 22.5 91 1.1 E 11 15 6 8 1009.7 1008.1 2.0
27/03:00pm 24.5 26.3 22.6 89 1.3 NE 17 20 9 11 1009.8 1008.2 1.0
27/02:52pm 24.5 26.4 22.8 90 1.2 NE 17 22 9 12 1009.8 1008.2 1.0
27/02:30pm 24.2 24.7 21.9 87 1.5 ENE 22 32 12 17 1009.9 1008.3 0.6
27/02:29pm 24.1 24.1 21.6 86 1.7 ENE 24 32 13 17 1009.9 1008.3 0.6
27/02:23pm 24.0 23.1 20.7 82 2.2 ENE 26 32 14 17 1010.0 1008.4 0.6
27/02:00pm 25.4 25.1 22.5 84 2.0 ENE 28 37 15 20 1010.1 1008.5 0.6
27/01:59pm 25.5 25.2 22.6 84 2.0 ENE 28 37 15 20 1010.1 1008.5 0.6
27/01:57pm 25.4 24.9 22.1 82 2.2 ENE 28 37 15 20 1010.1 1008.5 0.6
27/01:47pm 25.7 25.3 22.4 82 2.2 ENE 28 39 15 21 1010.1 1008.5 0.6
27/01:30pm 26.1 27.4 22.6 81 2.4 ENE 20 30 11 16 1010.1 1008.5 0.6
27/01:00pm 27.5 28.8 22.7 75 3.3 E 20 26 11 14 1010.3 1008.7 0.4
27/12:30pm 26.6 28.3 23.1 81 2.4 E 19 26 10 14 1010.6 1009.0 0.2
27/12:00pm 26.7 27.4 23.0 80 2.5 E 24 32 13 17 1011.0 1009.4 0.0
27/11:30am 27.5 29.2 23.1 77 3.0 E 19 24 10 13 1011.2 1009.6 0.0
27/11:00am 27.7 31.2 23.5 78 2.9 E 11 17 6 9 1011.4 1009.8 0.0
27/10:30am 26.9 28.0 21.9 74 3.4 ESE 19 24 10 13 1011.7 1010.1 0.0
27/10:00am 27.1 28.9 22.5 76 3.1 E 17 24 9 13 1011.7 1010.1 0.0
27/09:30am 26.8 28.9 23.1 80 2.5 E 17 24 9 13 1011.8 1010.2 0.0
27/09:00am 25.9 27.6 22.4 81 2.4 E 17 24 9 13 1011.9 1010.3 2.8
27/08:43am 25.7 27.5 22.6 83 2.1 E 17 22 9 12 1011.9 1010.3 2.8
27/08:33am 25.3 27.5 22.6 85 1.8 E 15 20 8 11 1011.9 1010.3 2.8
27/08:30am 25.3 28.0 22.8 86 1.7 E 13 19 7 10 1011.9 1010.3 2.8
27/08:09am 24.9 27.1 22.6 87 1.6 E 15 20 8 11 1011.9 1010.3 2.8
27/08:00am 24.8 27.1 22.7 88 1.4 ESE 15 20 8 11 1011.8 1010.2 2.8
27/07:30am 24.6 27.4 23.0 91 1.1 ESE 13 19 7 10 1011.6 1010.0 2.8
27/07:00am 24.4 27.2 23.0 92 1.0 ESE 13 17 7 9 1011.2 1009.6 2.8
27/06:45am 24.4 27.6 23.0 92 1.0 ESE 11 17 6 9 1011.0 1009.4 2.8
27/06:30am 24.2 27.4 23.0 93 0.8 ESE 11 17 6 9 1010.9 1009.3 2.8
27/06:06am 24.0 26.7 22.8 93 0.8 E 13 17 7 9 1010.6 1009.0 2.8
27/06:00am 24.0 26.7 22.8 93 0.8 E 13 17 7 9 1010.5 1008.9 2.8
27/05:30am 23.9 26.5 22.7 93 0.8 ESE 13 17 7 9 1010.2 1008.6 2.8
27/05:28am 23.9 26.5 22.7 93 0.8 ESE 13 17 7 9 1010.2 1008.6 2.8
27/05:00am 23.9 26.2 22.7 93 0.8 ESE 15 20 8 11 1009.9 1008.3 2.6
27/04:30am 23.8 26.0 22.6 93 0.8 ESE 15 20 8 11 1009.7 1008.1 2.6
27/04:00am 23.8 25.5 22.4 92 0.9 ESE 17 20 9 11 1009.4 1007.8 2.6
27/03:30am 23.8 25.7 22.1 90 1.1 ESE 15 19 8 10 1009.3 1007.7 2.6
27/03:00am 23.9 26.3 22.2 90 1.1 ESE 13 17 7 9 1009.5 1007.9 2.6
27/02:30am 24.1 25.5 21.8 87 1.5 E 17 20 9 11 1009.8 1008.2 2.6
27/02:00am 24.2 25.3 21.9 87 1.5 E 19 24 10 13 1010.1 1008.5 2.6
27/01:30am 24.2 26.4 21.9 87 1.5 ESE 13 17 7 9 1010.5 1008.9 2.6
27/01:00am 24.4 26.6 21.9 86 1.7 ESE 13 19 7 10 1010.7 1009.1 2.6
27/12:30am 24.6 26.7 21.7 84 1.9 E 13 17 7 9 1011.2 1009.6 2.6
27/12:00am 24.9 26.1 21.4 81 2.3 E 17 20 9 11 1011.6 1010.0 2.6
 
Date/Time
EST
Temp
°C
App
Temp
°C
Dew
Point
°C
Rel
Hum
%
Delta-T
°C
Wind Press
QNH
hPa
Press
MSL
hPa
Rain since
9am
mm
Dir  Spd
km/h
Gust
km/h
Spd
kts
Gust
kts
26/11:30pm 24.8 26.9 22.5 87 1.6 E 15 19 8 10 1011.8 1010.2 2.6
26/11:00pm 24.8 27.1 22.7 88 1.4 ESE 15 20 8 11 1012.0 1010.4 2.6
26/10:30pm 25.0 27.6 22.7 87 1.6 ESE 13 17 7 9 1012.0 1010.4 2.6
26/10:00pm 25.1 27.8 22.8 87 1.6 ESE 13 19 7 10 1012.0 1010.4 2.6
26/09:30pm 25.2 28.2 22.7 86 1.7 E 11 13 6 7 1012.0 1010.4 2.4
26/09:00pm 25.4 28.2 22.3 83 2.1 E 11 15 6 8 1011.7 1010.1 2.4
26/08:30pm 25.5 29.0 22.8 85 1.8 E 9 11 5 6 1011.4 1009.8 2.4
26/08:00pm 25.6 27.9 22.1 81 2.4 E 13 17 7 9 1011.0 1009.4 2.4
26/07:30pm 25.7 27.1 21.8 79 2.6 E 17 20 9 11 1010.6 1009.0 2.4
26/07:00pm 25.7 28.9 23.0 85 1.8 ENE 11 15 6 8 1010.2 1008.6 2.4
26/06:30pm 25.5 28.7 23.0 86 1.7 NE 11 13 6 7 1009.7 1008.1 2.4
26/06:03pm 25.3 27.2 22.8 86 1.7 NE 17 20 9 11 1009.5 1007.9 2.4
26/06:00pm 25.4 27.3 22.7 85 1.8 NE 17 20 9 11 1009.4 1007.8 2.4
26/05:49pm 25.4 30.0 23.8 91 1.1 NNE 6 13 3 7 1009.4 1007.8 2.2
26/05:35pm 25.0 30.0 23.2 90 1.2 NNE 2 9 1 5 1009.4 1007.8 2.2
26/05:30pm 25.1 30.5 23.3 90 1.2 CALM 0 7 0 4 1009.4 1007.8 1.4
26/05:29pm 25.2 30.3 23.3 89 1.3 NNW 2 9 1 5 1009.4 1007.8 1.4
26/05:00pm 25.3 30.0 23.9 92 1.0 NW 6 9 3 5 1009.2 1007.6 1.4
26/04:30pm 24.8 28.8 23.8 94 0.7 WNW 9 13 5 7 1009.0 1007.3 1.4
26/04:00pm 24.6 27.9 23.2 92 1.0 WNW 11 17 6 9 1009.1 1007.5 1.4
26/03:30pm 25.0 26.3 22.7 87 1.6 NNW 20 30 11 16 1009.3 1007.7 0.6
26/03:00pm 26.8 29.7 23.1 80 2.5 WNW 13 20 7 11 1009.2 1007.6 0.6
26/02:30pm 29.1 30.4 22.6 68 4.5 E 20 28 11 15 1009.2 1007.6 0.6
26/02:00pm 30.3 31.1 22.5 63 5.4 E 22 32 12 17 1009.3 1007.7 0.4
26/01:30pm 30.6 31.7 23.0 64 5.3 E 22 32 12 17 1009.7 1008.1 0.4
26/01:00pm 29.7 29.9 22.7 66 4.8 E 26 35 14 19 1010.0 1008.4 0.4
26/12:30pm 29.4 30.2 24.5 75 3.4 E 28 37 15 20 1010.5 1008.9 0.2
26/12:00pm 28.7 29.0 23.6 74 3.5 E 28 35 15 19 1010.9 1009.3 0.2
26/11:30am 28.2 29.5 23.3 75 3.4 E 22 30 12 16 1011.4 1009.8 0.2
26/11:00am 26.9 29.2 24.5 87 1.7 ESE 20 28 11 15 1011.8 1010.2 0.2
26/10:30am 27.8 29.1 22.3 72 3.7 ENE 19 24 10 13 1012.0 1010.4 0.0
26/10:00am 27.1 28.3 22.5 76 3.1 E 20 28 11 15 1012.0 1010.4 0.0
26/09:30am 26.6 28.3 23.1 81 2.4 E 19 24 10 13 1012.4 1010.7 0.0
26/09:01am 26.1 27.8 22.4 80 2.5 E 17 22 9 12 1012.1 1010.5 0.0
26/09:00am 26.2 28.1 22.7 81 2.4 E 17 22 9 12 1012.1 1010.5 40.6
26/08:30am 26.2 28.6 22.9 82 2.3 E 15 20 8 11 1012.0 1010.4 40.6
26/08:00am 25.6 27.8 23.3 87 1.6 E 17 20 9 11 1012.0 1010.4 40.6
26/07:30am 25.1 28.0 23.2 89 1.3 ESE 13 17 7 9 1011.9 1010.3 40.6
26/07:00am 24.7 27.9 23.1 91 1.1 ESE 11 15 6 8 1011.7 1010.1 40.6
26/06:30am 24.6 27.6 23.4 93 0.8 ESE 13 19 7 10 1011.3 1009.7 40.6
26/06:00am 24.4 27.4 23.4 94 0.7 ESE 13 17 7 9 1010.9 1009.3 40.6
26/05:30am 24.3 27.7 23.3 94 0.7 ESE 11 15 6 8 1010.3 1008.7 40.6
26/05:03am 24.3 28.0 23.3 94 0.7 ESE 9 13 5 7 1010.0 1008.4 40.6
26/05:00am 24.3 27.7 23.3 94 0.7 ESE 11 13 6 7 1010.0 1008.4 40.6
26/04:30am 24.5 27.7 23.1 92 1.0 E 11 15 6 8 1010.0 1008.4 40.6
26/04:00am 24.4 28.0 23.0 92 1.0 E 9 15 5 8 1010.1 1008.5 40.6
26/03:30am 24.4 28.1 23.2 93 0.8 E 9 11 5 6 1009.9 1008.3 40.6
26/03:13am 24.3 28.4 23.3 94 0.7 E 7 9 4 5 1009.9 1008.3 40.6
26/03:00am 24.2 28.4 23.2 94 0.7 E 6 9 3 5 1009.9 1008.3 40.6
26/02:30am 24.2 27.7 22.8 92 1.0 E 9 13 5 7 1010.0 1008.4 40.6
26/02:00am 24.2 27.2 22.6 91 1.1 E 11 13 6 7 1010.3 1008.7 40.6
26/01:30am 24.3 26.9 22.6 90 1.2 E 13 17 7 9 1010.3 1008.7 40.6
26/01:00am 24.4 27.5 22.8 91 1.1 ESE 11 15 6 8 1010.7 1009.1 40.6
26/12:30am 24.5 28.1 23.1 92 1.0 E 9 11 5 6 1010.9 1009.3 40.6

Other formats

Comma delimited format used in spreadsheet applications
http://www.bom.gov.au/fwo/IDQ60801/IDQ60801.94397.axf

JavaScript Object Notation format (JSON) in row-major order
http://www.bom.gov.au/fwo/IDQ60801/IDQ60801.94397.json

Data quality

Most of these data are generated automatically and are frequently updated. Quality checks on data are not normally performed. It is possible for incorrect values to appear. Refer to information at About Latest Weather Observations and please check the disclaimer before using these data.